Pagrindinis puslapis
METAR-TAF:

METAR-TAF

Oro uostai :

El Pasas, Teksasas, Jungtinės Amerikos Valstijos

platuma: 31-48-40N, ilguma: 106-22-33W, Aukštis: 1206 m

Dabartinis oras

Ataskaita buvo paskelbta 52 minutes, ne 11:51 UTC
Vėjas 6 kt iš Šiaurės
Temperatūra 7°C
Drėgmė 70%
Slėgis 1021 hPa
Matomumas: 16.1 km
Išsisklaidę debesys ne aukštis 21000 ft

METAR: KELP 301151Z 01006KT 10SM SCT210 07/02 A3014 RMK AO2 SLP173 T00670017 10100 20056 55001 $

Laikas: 06:43 (12:43 UTC)

Prognozė

Ataskaita buvo paskelbta 1 valandą ir 17 minutes, ne 11:26 UTC
Prognozė galioja nuo 30 metu 12 UTC su 01 metu 12 UTC
Vėjas 5 kt nuo kintamojo kryptimis
Matomumas: 10 km
Išsisklaidę debesys ne aukštis 23000 ft

TAF: KELP 301126Z 3012/0112 VRB05KT P6SM SCT230

Orai ataskaitas ir orų prognozės (METAR, TAF).

turimą stotys yra geltonos ir raudonos taškus žemėlapyje.

Perkelti pele per norėdami pamatyti stoties vardą.

Tada spustelėkite, norėdami matyti oro stebėjimo ir prognozės.

Norėdami pakeisti žemėlapį: spustelėkite ant žalios mygtukų su juodo kryžiaus žemyn,; žalią mygtuką su brūkšneliu, jei norite nutolinti; arba žalių rodyklių gretimoms žemėlapius.


METAR-TAF: